Time;durP1;ratioP1;P1;durP2;ratioP2;P2;SDS_P1;SDS_P2;PMS_P1;PMS_P2;Temp;Humidity;BMP_temperature;BMP_pressure;BME280_temperature;BME280_humidity;BME280_pressure;Samples;Min_cycle;Max_cycle;Signal;HPM_P1;HPM_P2
2023/05/02 00:02:19;;;;;;;17.83;8.32;;;;;;;;;;5087775;27;20043;-75
2023/05/02 00:04:45;;;;;;;16.45;8.48;;;;;;;;;;5090014;27;20578;-75
2023/05/02 00:07:11;;;;;;;18.58;7.80;;;;;;;;;;5068666;27;20459;-75
2023/05/02 00:09:37;;;;;;;12.90;7.72;;;;;;;;;;5088379;27;20035;-75
2023/05/02 00:12:04;;;;;;;15.88;8.40;;;;;;;;;;5088909;27;22547;-75
2023/05/02 00:14:30;;;;;;;17.75;8.52;;;;;;;;;;5071504;27;20083;-75
2023/05/02 00:16:56;;;;;;;12.50;7.43;;;;;;;;;;5096110;27;20113;-73
2023/05/02 00:19:22;;;;;;;20.05;8.18;;;;;;;;;;5093469;27;20152;-74
2023/05/02 00:21:48;;;;;;;14.88;8.02;;;;;;;;;;5070282;27;20137;-74
2023/05/02 00:24:15;;;;;;;17.67;7.53;;;;;;;;;;5089840;27;20044;-75
2023/05/02 00:26:41;;;;;;;13.07;7.10;;;;;;;;;;5085275;27;20052;-74
2023/05/02 00:29:07;;;;;;;19.02;7.45;;;;;;;;;;5065180;27;20051;-74
2023/05/02 00:31:34;;;;;;;12.38;7.45;;;;;;;;;;5090264;27;20089;-74
2023/05/02 00:34:00;;;;;;;16.95;7.50;;;;;;;;;;5107552;27;20043;-74
2023/05/02 00:36:26;;;;;;;18.65;7.82;;;;;;;;;;5090780;27;20136;-74
2023/05/02 00:38:53;;;;;;;14.45;7.68;;;;;;;;;;5066274;27;20496;-74
2023/05/02 00:41:19;;;;;;;23.73;8.80;;;;;;;;;;5090641;27;20055;-74
2023/05/02 00:43:45;;;;;;;19.73;6.60;;;;;;;;;;5089847;27;20044;-74
2023/05/02 00:46:12;;;;;;;14.50;5.38;;;;;;;;;;5079223;27;20120;-75
2023/05/02 00:48:38;;;;;;;18.63;4.50;;;;;;;;;;5086133;27;20059;-74
2023/05/02 00:51:05;;;;;;;14.13;4.53;;;;;;;;;;5088882;27;20048;-75
2023/05/02 00:53:31;;;;;;;10.68;4.28;;;;;;;;;;5088945;27;20039;-75
2023/05/02 00:55:58;;;;;;;11.57;3.90;;;;;;;;;;5088123;27;20048;-75
2023/05/02 00:58:25;;;;;;;14.00;4.38;;;;;;;;;;5088762;27;20119;-75
2023/05/02 01:01:00;;;;;;;25.15;6.22;;;;;;;;;;5089385;27;20499;-75
2023/05/02 01:03:46;;;;;;;16.60;5.10;;;;;;;;;;5086688;27;20048;-74
2023/05/02 01:06:31;;;;;;;24.60;6.30;;;;;;;;;;5086481;27;20798;-74
2023/05/02 01:09:16;;;;;;;23.48;5.03;;;;;;;;;;5087454;27;20058;-74
2023/05/02 01:11:57;;;;;;;25.88;7.55;;;;;;;;;;5088362;27;20043;-74
2023/05/02 01:14:24;;;;;;;19.70;4.53;;;;;;;;;;5086681;27;23790;-74
2023/05/02 01:16:51;;;;;;;22.10;4.90;;;;;;;;;;5083578;27;20074;-74
2023/05/02 01:19:29;;;;;;;21.27;4.40;;;;;;;;;;5086476;27;20075;-75
2023/05/02 01:21:56;;;;;;;19.95;3.75;;;;;;;;;;5086401;27;20048;-74
2023/05/02 01:24:26;;;;;;;18.90;4.28;;;;;;;;;;5084577;27;20050;-74
2023/05/02 01:26:59;;;;;;;20.27;3.47;;;;;;;;;;5088042;27;20503;-74
2023/05/02 01:29:27;;;;;;;20.75;3.95;;;;;;;;;;5087952;27;20047;-74
2023/05/02 01:31:54;;;;;;;24.17;4.85;;;;;;;;;;5083565;27;20054;-75
2023/05/02 01:34:21;;;;;;;17.40;4.63;;;;;;;;;;5104457;27;20126;-74
2023/05/02 01:36:50;;;;;;;15.00;3.83;;;;;;;;;;5084745;27;20045;-74
2023/05/02 01:39:18;;;;;;;18.95;4.47;;;;;;;;;;5086219;27;20047;-75
2023/05/02 01:41:45;;;;;;;24.75;5.00;;;;;;;;;;5061948;27;20494;-74
2023/05/02 01:44:12;;;;;;;23.90;4.30;;;;;;;;;;5102884;27;20127;-74
2023/05/02 01:46:41;;;;;;;20.23;4.30;;;;;;;;;;5086152;27;20043;-74
2023/05/02 01:49:08;;;;;;;22.92;5.78;;;;;;;;;;5085313;27;20134;-74
2023/05/02 01:51:35;;;;;;;15.20;4.25;;;;;;;;;;5078134;27;20048;-74
2023/05/02 01:54:04;;;;;;;15.60;3.65;;;;;;;;;;5065409;28;20039;-74
2023/05/02 01:56:31;;;;;;;22.55;4.80;;;;;;;;;;5084029;27;20671;-74
2023/05/02 01:58:57;;;;;;;22.45;4.75;;;;;;;;;;5060536;28;20623;-74
2023/05/02 02:01:26;;;;;;;40.13;6.50;;;;;;;;;;5083750;27;21656;-74
2023/05/02 02:03:54;;;;;;;29.10;5.68;;;;;;;;;;5080927;27;20047;-74
2023/05/02 02:06:21;;;;;;;25.23;5.68;;;;;;;;;;5098357;27;20039;-75
2023/05/02 02:08:47;;;;;;;32.20;6.28;;;;;;;;;;5085807;27;20051;-74
2023/05/02 02:11:16;;;;;;;23.58;5.82;;;;;;;;;;5100266;27;20063;-74
2023/05/02 02:13:49;;;;;;;27.38;5.50;;;;;;;;;;5084827;27;20039;-74
2023/05/02 02:16:21;;;;;;;19.88;4.60;;;;;;;;;;5085051;27;20055;-75
2023/05/02 02:18:47;;;;;;;22.75;5.05;;;;;;;;;;5083845;27;20515;-74
2023/05/02 02:21:16;;;;;;;24.15;5.40;;;;;;;;;;5085091;27;20055;-74
2023/05/02 02:23:43;;;;;;;26.48;4.78;;;;;;;;;;5080425;27;20088;-74
2023/05/02 02:26:09;;;;;;;19.42;4.75;;;;;;;;;;5082262;27;20039;-74
2023/05/02 02:28:35;;;;;;;14.57;4.28;;;;;;;;;;5064508;27;20214;-74
2023/05/02 02:31:01;;;;;;;17.98;3.90;;;;;;;;;;5077785;27;20047;-74
2023/05/02 02:33:29;;;;;;;26.88;4.43;;;;;;;;;;5084791;27;20042;-74
2023/05/02 02:36:01;;;;;;;20.10;4.57;;;;;;;;;;5076531;27;20494;-74
2023/05/02 02:38:35;;;;;;;29.70;4.07;;;;;;;;;;5083879;27;20047;-74
2023/05/02 02:41:06;;;;;;;24.00;5.57;;;;;;;;;;5085225;27;20047;-74
2023/05/02 02:43:43;;;;;;;20.70;3.53;;;;;;;;;;5081651;27;20054;-74
2023/05/02 02:46:20;;;;;;;20.52;4.35;;;;;;;;;;5081218;27;20073;-74
2023/05/02 02:48:46;;;;;;;20.77;4.15;;;;;;;;;;5080791;27;20047;-75
2023/05/02 02:51:31;;;;;;;20.25;3.97;;;;;;;;;;5082665;27;20066;-74
2023/05/02 02:54:06;;;;;;;18.40;4.50;;;;;;;;;;5083157;27;20076;-74
2023/05/02 02:56:43;;;;;;;19.40;4.20;;;;;;;;;;5084824;27;20035;-74
2023/05/02 02:59:20;;;;;;;18.23;5.32;;;;;;;;;;5081873;27;20135;-74
2023/05/02 03:01:48;;;;;;;18.33;3.28;;;;;;;;;;5079941;27;21209;-73
2023/05/02 03:04:16;;;;;;;14.20;3.60;;;;;;;;;;5079148;27;20054;-73
2023/05/02 03:06:42;;;;;;;22.25;3.83;;;;;;;;;;5062261;28;20069;-74
2023/05/02 03:09:16;;;;;;;22.83;4.22;;;;;;;;;;5077075;27;20128;-73
2023/05/02 03:11:44;;;;;;;15.65;4.38;;;;;;;;;;5083932;27;20055;-74
2023/05/02 03:14:10;;;;;;;22.83;4.38;;;;;;;;;;5077302;28;20040;-73
2023/05/02 03:16:37;;;;;;;25.25;4.03;;;;;;;;;;5081014;27;20071;-73
2023/05/02 03:19:04;;;;;;;20.08;3.88;;;;;;;;;;5088792;27;20048;-73
2023/05/02 03:21:30;;;;;;;13.90;3.05;;;;;;;;;;5059553;28;20050;-73
2023/05/02 03:24:00;;;;;;;16.00;3.10;;;;;;;;;;5087503;27;20483;-73
2023/05/02 03:26:26;;;;;;;22.13;3.60;;;;;;;;;;5082018;27;20056;-73
2023/05/02 03:28:53;;;;;;;23.08;3.10;;;;;;;;;;5077082;27;20482;-73
2023/05/02 03:31:19;;;;;;;30.00;4.28;;;;;;;;;;5083019;27;20048;-74
2023/05/02 03:33:45;;;;;;;14.38;2.70;;;;;;;;;;5082896;28;20044;-75
2023/05/02 03:36:11;;;;;;;13.90;3.25;;;;;;;;;;5069557;28;20126;-75
2023/05/02 03:38:37;;;;;;;16.88;2.92;;;;;;;;;;5045379;28;20046;-75
2023/05/02 03:41:03;;;;;;;16.25;3.13;;;;;;;;;;5083392;27;21284;-75
2023/05/02 03:43:30;;;;;;;11.10;2.65;;;;;;;;;;5082653;27;20031;-75
2023/05/02 03:45:56;;;;;;;15.10;2.72;;;;;;;;;;5082197;28;21906;-75
2023/05/02 03:48:22;;;;;;;12.63;2.75;;;;;;;;;;5084956;27;20092;-75
2023/05/02 03:50:48;;;;;;;9.25;2.38;;;;;;;;;;5081982;28;20090;-75
2023/05/02 03:53:17;;;;;;;9.95;2.40;;;;;;;;;;5060666;27;20047;-75
2023/05/02 03:55:43;;;;;;;13.50;2.47;;;;;;;;;;5080796;28;20063;-75
2023/05/02 03:58:10;;;;;;;12.60;2.40;;;;;;;;;;5082665;27;20462;-74
2023/05/02 04:00:37;;;;;;;7.65;2.40;;;;;;;;;;5087474;27;20053;-74
2023/05/02 04:03:03;;;;;;;13.70;3.10;;;;;;;;;;5087190;27;20097;-75
2023/05/02 04:05:29;;;;;;;6.85;1.95;;;;;;;;;;5087280;27;20040;-75
2023/05/02 04:07:56;;;;;;;11.35;2.50;;;;;;;;;;5086614;27;20059;-73
2023/05/02 04:10:22;;;;;;;12.27;3.15;;;;;;;;;;5086628;27;20147;-74
2023/05/02 04:12:48;;;;;;;7.43;2.17;;;;;;;;;;5085961;27;20036;-74
2023/05/02 04:15:14;;;;;;;7.93;1.98;;;;;;;;;;5060994;27;20043;-73
2023/05/02 04:17:41;;;;;;;11.18;2.05;;;;;;;;;;5088195;27;20835;-73
2023/05/02 04:20:08;;;;;;;9.07;2.30;;;;;;;;;;5090109;27;20125;-72
2023/05/02 04:22:35;;;;;;;9.73;2.53;;;;;;;;;;5088428;27;20059;-73
2023/05/02 04:25:01;;;;;;;6.40;1.90;;;;;;;;;;5066272;27;20059;-76
2023/05/02 04:27:27;;;;;;;6.85;2.15;;;;;;;;;;5083799;27;20805;-73
2023/05/02 04:29:53;;;;;;;14.73;2.90;;;;;;;;;;5096242;27;20104;-73
2023/05/02 04:32:19;;;;;;;10.90;2.90;;;;;;;;;;5093586;27;20043;-74
2023/05/02 04:34:45;;;;;;;22.27;3.15;;;;;;;;;;5095602;27;20162;-74
2023/05/02 04:37:11;;;;;;;18.77;3.65;;;;;;;;;;5100960;27;20092;-73
2023/05/02 04:39:37;;;;;;;8.43;2.67;;;;;;;;;;5075518;27;20084;-73
2023/05/02 04:42:03;;;;;;;16.70;3.38;;;;;;;;;;5070030;27;20662;-73
2023/05/02 04:44:30;;;;;;;13.63;2.80;;;;;;;;;;5093229;27;20046;-74
2023/05/02 04:46:56;;;;;;;11.23;3.10;;;;;;;;;;5091250;27;20058;-74
2023/05/02 04:49:22;;;;;;;17.15;3.05;;;;;;;;;;5095103;27;20047;-73
2023/05/02 04:51:48;;;;;;;13.65;2.90;;;;;;;;;;5066429;27;20482;-73
2023/05/02 04:54:14;;;;;;;14.77;3.15;;;;;;;;;;5091328;27;20066;-74
2023/05/02 04:56:41;;;;;;;12.57;3.13;;;;;;;;;;5074756;27;20471;-74
2023/05/02 04:59:07;;;;;;;15.60;3.10;;;;;;;;;;5088265;27;20035;-74
2023/05/02 05:01:33;;;;;;;13.68;4.70;;;;;;;;;;5086690;27;20048;-72
2023/05/02 05:03:59;;;;;;;15.60;3.88;;;;;;;;;;5083606;27;20135;-74
2023/05/02 05:06:25;;;;;;;13.02;3.20;;;;;;;;;;5089437;27;20051;-74
2023/05/02 05:08:51;;;;;;;13.30;2.97;;;;;;;;;;5086227;27;20036;-74
2023/05/02 05:11:17;;;;;;;15.30;3.20;;;;;;;;;;5093161;27;20907;-73
2023/05/02 05:13:44;;;;;;;14.35;3.17;;;;;;;;;;5083934;27;20126;-73
2023/05/02 05:16:10;;;;;;;15.07;2.65;;;;;;;;;;5088483;27;20043;-73
2023/05/02 05:18:40;;;;;;;12.50;2.92;;;;;;;;;;5091168;27;20122;-73
2023/05/02 05:21:09;;;;;;;10.75;3.17;;;;;;;;;;5092624;27;20161;-73
2023/05/02 05:23:36;;;;;;;12.85;2.72;;;;;;;;;;5088713;27;20047;-73
2023/05/02 05:26:12;;;;;;;13.25;2.75;;;;;;;;;;5092102;27;20075;-74
2023/05/02 05:28:38;;;;;;;13.25;2.72;;;;;;;;;;5089766;27;20047;-73
2023/05/02 05:31:05;;;;;;;11.00;3.38;;;;;;;;;;5069601;27;20053;-73
2023/05/02 05:33:31;;;;;;;16.38;3.55;;;;;;;;;;5101432;27;20554;-75
2023/05/02 05:36:03;;;;;;;10.52;3.17;;;;;;;;;;5082922;27;20043;-83
2023/05/02 05:38:29;;;;;;;20.77;3.28;;;;;;;;;;5102147;27;20042;-83
2023/05/02 05:40:55;;;;;;;14.30;3.17;;;;;;;;;;5096380;27;20089;-73
2023/05/02 05:43:22;;;;;;;10.90;2.90;;;;;;;;;;5086274;27;20059;-74
2023/05/02 05:45:48;;;;;;;16.63;3.47;;;;;;;;;;5083202;27;20039;-74
2023/05/02 05:48:14;;;;;;;16.27;3.00;;;;;;;;;;5087127;27;20489;-74
2023/05/02 05:50:40;;;;;;;12.35;3.33;;;;;;;;;;5088028;27;20208;-74
2023/05/02 05:53:06;;;;;;;14.45;3.60;;;;;;;;;;5091491;27;20046;-76
2023/05/02 05:55:32;;;;;;;12.23;3.42;;;;;;;;;;5067598;27;20631;-75
2023/05/02 05:57:58;;;;;;;14.68;3.63;;;;;;;;;;5091288;27;20100;-75
2023/05/02 06:00:24;;;;;;;11.77;2.85;;;;;;;;;;5065653;27;20035;-75
2023/05/02 06:02:50;;;;;;;12.13;3.58;;;;;;;;;;5068049;27;20074;-76
2023/05/02 06:05:17;;;;;;;11.23;3.38;;;;;;;;;;5093077;27;20047;-77
2023/05/02 06:07:43;;;;;;;16.20;3.90;;;;;;;;;;5061509;27;20141;-76
2023/05/02 06:10:09;;;;;;;10.20;2.58;;;;;;;;;;5090319;27;20054;-76
2023/05/02 06:12:35;;;;;;;11.55;2.80;;;;;;;;;;5073223;28;20494;-75
2023/05/02 06:15:02;;;;;;;16.00;3.28;;;;;;;;;;5091038;27;20134;-76
2023/05/02 06:17:28;;;;;;;9.70;3.10;;;;;;;;;;5091702;27;20130;-76
2023/05/02 06:19:54;;;;;;;11.00;3.08;;;;;;;;;;5092025;27;20077;-76
2023/05/02 06:22:20;;;;;;;12.93;3.35;;;;;;;;;;5066131;27;20043;-76
2023/05/02 06:24:46;;;;;;;10.25;2.95;;;;;;;;;;5093900;27;20046;-76
2023/05/02 06:27:12;;;;;;;15.65;3.22;;;;;;;;;;5074918;27;20047;-76
2023/05/02 06:29:38;;;;;;;11.90;3.03;;;;;;;;;;5064511;27;20044;-76
2023/05/02 06:32:05;;;;;;;11.77;3.35;;;;;;;;;;5093939;27;20041;-82
2023/05/02 06:34:32;;;;;;;10.75;3.15;;;;;;;;;;5099964;27;20050;-82
2023/05/02 06:36:58;;;;;;;11.65;2.85;;;;;;;;;;5105272;27;20047;-81
2023/05/02 06:39:24;;;;;;;15.70;4.10;;;;;;;;;;5108294;27;20035;-82
2023/05/02 06:41:50;;;;;;;10.15;3.22;;;;;;;;;;5102543;27;20050;-81
2023/05/02 06:44:16;;;;;;;12.57;2.58;;;;;;;;;;5097837;27;20039;-81
2023/05/02 06:46:43;;;;;;;13.82;2.95;;;;;;;;;;5103777;27;20100;-83
2023/05/02 06:49:09;;;;;;;13.43;2.72;;;;;;;;;;5104214;27;20209;-82
2023/05/02 06:51:35;;;;;;;21.17;3.40;;;;;;;;;;5069596;27;20487;-82
2023/05/02 06:54:01;;;;;;;19.20;3.78;;;;;;;;;;5078267;27;20031;-82
2023/05/02 06:56:28;;;;;;;10.40;2.92;;;;;;;;;;5088597;27;20077;-80
2023/05/02 06:58:54;;;;;;;7.05;2.75;;;;;;;;;;5092801;27;20151;-75
2023/05/02 07:01:20;;;;;;;9.98;2.55;;;;;;;;;;5083799;27;20139;-75
2023/05/02 07:03:46;;;;;;;9.57;2.65;;;;;;;;;;5087285;27;20096;-75
2023/05/02 07:06:12;;;;;;;12.18;2.60;;;;;;;;;;5092485;27;20051;-76
2023/05/02 07:08:38;;;;;;;11.43;2.60;;;;;;;;;;5094368;27;20074;-76
2023/05/02 07:11:04;;;;;;;10.35;2.08;;;;;;;;;;5090762;28;20066;-76
2023/05/02 07:13:30;;;;;;;11.93;2.85;;;;;;;;;;5106292;27;20396;-76
2023/05/02 07:15:57;;;;;;;8.25;2.40;;;;;;;;;;5078114;27;20629;-76
2023/05/02 07:18:23;;;;;;;11.20;2.05;;;;;;;;;;5083859;28;21957;-76
2023/05/02 07:20:49;;;;;;;7.05;2.83;;;;;;;;;;5090932;27;20080;-82
2023/05/02 07:23:15;;;;;;;15.75;3.55;;;;;;;;;;5105418;28;20031;-82
2023/05/02 07:25:41;;;;;;;7.78;2.75;;;;;;;;;;5099911;28;20094;-82
2023/05/02 07:28:08;;;;;;;10.18;2.65;;;;;;;;;;5083292;28;20036;-82
2023/05/02 07:30:34;;;;;;;11.35;2.67;;;;;;;;;;5109045;28;20073;-82
2023/05/02 07:33:00;;;;;;;12.48;2.83;;;;;;;;;;5084500;27;20036;-81
2023/05/02 07:35:26;;;;;;;12.98;2.95;;;;;;;;;;5102215;27;20038;-79
2023/05/02 07:37:52;;;;;;;6.35;2.53;;;;;;;;;;5102758;27;20095;-79
2023/05/02 07:40:18;;;;;;;9.55;2.50;;;;;;;;;;5101638;27;20066;-85
2023/05/02 07:42:45;;;;;;;15.77;2.85;;;;;;;;;;5110752;27;20032;-80
2023/05/02 07:45:11;;;;;;;9.82;2.35;;;;;;;;;;5110835;27;20513;-82
2023/05/02 07:47:38;;;;;;;15.65;3.17;;;;;;;;;;5103143;27;21980;-80
2023/05/02 07:50:04;;;;;;;9.90;2.63;;;;;;;;;;5099863;27;20027;-82
2023/05/02 07:52:30;;;;;;;7.45;1.95;;;;;;;;;;5095935;27;20045;-80
2023/05/02 07:54:56;;;;;;;12.68;2.78;;;;;;;;;;5103429;27;20607;-81
2023/05/02 07:57:22;;;;;;;14.63;2.50;;;;;;;;;;5107580;27;20047;-82
2023/05/02 07:59:49;;;;;;;5.53;1.90;;;;;;;;;;5082443;27;20138;-81
2023/05/02 08:02:18;;;;;;;9.63;2.03;;;;;;;;;;5103507;27;20403;-83
2023/05/02 08:04:45;;;;;;;8.57;1.88;;;;;;;;;;5106575;27;20040;-81
2023/05/02 08:07:11;;;;;;;10.85;1.88;;;;;;;;;;5103637;27;20043;-82
2023/05/02 08:09:37;;;;;;;6.82;1.42;;;;;;;;;;5106435;27;20059;-81
2023/05/02 08:12:04;;;;;;;6.53;1.45;;;;;;;;;;5094372;27;20035;-82
2023/05/02 08:14:33;;;;;;;5.65;1.30;;;;;;;;;;5103095;27;20039;-82
2023/05/02 08:17:05;;;;;;;6.57;1.30;;;;;;;;;;5108520;27;20035;-80
2023/05/02 08:19:31;;;;;;;6.97;1.35;;;;;;;;;;5106486;27;20066;-81
2023/05/02 08:21:58;;;;;;;6.97;1.70;;;;;;;;;;5098053;27;20046;-81
2023/05/02 08:24:24;;;;;;;8.45;1.95;;;;;;;;;;5107728;27;20179;-81
2023/05/02 08:26:50;;;;;;;9.60;1.83;;;;;;;;;;5105743;27;20047;-81
2023/05/02 08:29:17;;;;;;;6.32;1.42;;;;;;;;;;5105185;27;20066;-81
2023/05/02 08:31:43;;;;;;;5.60;1.65;;;;;;;;;;5106959;27;20441;-77
2023/05/02 08:34:09;;;;;;;10.82;2.38;;;;;;;;;;5066641;27;20039;-81
2023/05/02 08:36:36;;;;;;;7.15;1.83;;;;;;;;;;5093213;27;20132;-80
2023/05/02 08:39:02;;;;;;;5.22;1.35;;;;;;;;;;5089638;27;20055;-80
2023/05/02 08:41:30;;;;;;;8.05;1.60;;;;;;;;;;5071546;27;20043;-82
2023/05/02 08:43:56;;;;;;;3.17;1.30;;;;;;;;;;5089422;27;20055;-79
2023/05/02 08:46:23;;;;;;;7.55;1.70;;;;;;;;;;5087893;27;20043;-80
2023/05/02 08:48:49;;;;;;;3.25;1.60;;;;;;;;;;5079437;27;20047;-81
2023/05/02 08:51:16;;;;;;;7.60;1.65;;;;;;;;;;5091067;27;20131;-82
2023/05/02 08:53:43;;;;;;;8.38;1.70;;;;;;;;;;5084730;27;20048;-81
2023/05/02 08:56:10;;;;;;;4.40;1.38;;;;;;;;;;5095747;27;20039;-81
2023/05/02 08:58:37;;;;;;;10.73;1.83;;;;;;;;;;5095076;27;20139;-81
2023/05/02 09:01:07;;;;;;;8.35;1.48;;;;;;;;;;5095745;27;20145;-81
2023/05/02 09:03:34;;;;;;;9.13;2.00;;;;;;;;;;5081692;27;21949;-81
2023/05/02 09:06:08;;;;;;;5.03;1.80;;;;;;;;;;5094031;27;20074;-80
2023/05/02 09:08:34;;;;;;;7.22;1.90;;;;;;;;;;5095716;27;20492;-81
2023/05/02 09:11:04;;;;;;;3.92;1.60;;;;;;;;;;5094392;27;20385;-80
2023/05/02 09:13:38;;;;;;;7.55;1.38;;;;;;;;;;5095999;27;20043;-80
2023/05/02 09:16:08;;;;;;;5.82;1.50;;;;;;;;;;5075593;27;20071;-80
2023/05/02 09:18:39;;;;;;;5.25;1.77;;;;;;;;;;5096719;27;20091;-79
2023/05/02 09:21:09;;;;;;;4.80;1.38;;;;;;;;;;5073981;27;20082;-79
2023/05/02 09:23:38;;;;;;;5.78;1.70;;;;;;;;;;5092717;27;20039;-78
2023/05/02 09:26:34;;;;;;;4.32;1.55;;;;;;;;;;5093929;27;20155;-79
2023/05/02 09:29:02;;;;;;;6.78;1.38;;;;;;;;;;5074423;27;20554;-80
2023/05/02 09:31:32;;;;;;;9.18;1.50;;;;;;;;;;5095521;27;20051;-79
2023/05/02 09:34:07;;;;;;;6.70;1.27;;;;;;;;;;5109786;27;20192;-83
2023/05/02 09:36:38;;;;;;;10.55;3.25;;;;;;;;;;5110532;27;20042;-83
2023/05/02 09:39:10;;;;;;;9.07;1.70;;;;;;;;;;5109816;27;20062;-84
2023/05/02 09:41:42;;;;;;;7.38;1.95;;;;;;;;;;5100918;27;20047;-82
2023/05/02 09:44:10;;;;;;;4.80;1.42;;;;;;;;;;5091895;27;20043;-82
2023/05/02 09:46:43;;;;;;;3.17;1.15;;;;;;;;;;5097063;27;21009;-82
2023/05/02 09:49:09;;;;;;;2.23;1.07;;;;;;;;;;5108290;27;20051;-81
2023/05/02 09:51:35;;;;;;;5.60;1.35;;;;;;;;;;5105030;27;22129;-80
2023/05/02 09:54:02;;;;;;;4.93;1.20;;;;;;;;;;5108728;27;20036;-82
2023/05/02 09:56:28;;;;;;;5.38;1.17;;;;;;;;;;5102989;27;21987;-81
2023/05/02 09:59:13;;;;;;;2.60;0.93;;;;;;;;;;5085786;27;20035;-83
2023/05/02 10:01:41;;;;;;;3.95;1.00;;;;;;;;;;5096000;27;20043;-83
2023/05/02 10:04:10;;;;;;;2.53;0.80;;;;;;;;;;5094750;27;20047;-81
2023/05/02 10:06:36;;;;;;;8.90;2.05;;;;;;;;;;5110795;27;20047;-81
2023/05/02 10:09:02;;;;;;;4.57;1.25;;;;;;;;;;5104812;27;20121;-85
2023/05/02 10:11:30;;;;;;;6.20;1.30;;;;;;;;;;5092065;27;20040;-82
2023/05/02 10:13:56;;;;;;;4.93;1.33;;;;;;;;;;5110778;27;20448;-82
2023/05/02 10:16:27;;;;;;;4.32;1.70;;;;;;;;;;5104650;27;20421;-84
2023/05/02 10:19:06;;;;;;;4.32;1.15;;;;;;;;;;5107351;27;20051;-84
2023/05/02 10:21:33;;;;;;;5.13;1.40;;;;;;;;;;5111723;27;20043;-83
2023/05/02 10:24:03;;;;;;;3.28;1.20;;;;;;;;;;5107024;27;20114;-84
2023/05/02 10:26:30;;;;;;;4.28;1.45;;;;;;;;;;5108047;27;20492;-84
2023/05/02 10:28:56;;;;;;;2.28;0.95;;;;;;;;;;5110025;27;20039;-84
2023/05/02 10:31:23;;;;;;;7.63;1.10;;;;;;;;;;5108736;27;20032;-83
2023/05/02 10:33:51;;;;;;;7.93;1.45;;;;;;;;;;5091288;27;20039;-84
2023/05/02 10:36:20;;;;;;;4.40;0.80;;;;;;;;;;5107743;27;20862;-84
2023/05/02 10:38:47;;;;;;;5.88;1.02;;;;;;;;;;5106385;27;20093;-83
2023/05/02 10:41:15;;;;;;;3.95;1.00;;;;;;;;;;5088782;28;20486;-83
2023/05/02 10:43:45;;;;;;;2.67;0.90;;;;;;;;;;5111884;27;20084;-83
2023/05/02 10:46:33;;;;;;;5.55;1.10;;;;;;;;;;5113857;27;20050;-84
2023/05/02 10:49:03;;;;;;;3.92;0.85;;;;;;;;;;5112052;27;20114;-84
2023/05/02 10:51:33;;;;;;;3.13;0.93;;;;;;;;;;5115219;27;20043;-83
2023/05/02 10:54:17;;;;;;;4.78;1.10;;;;;;;;;;5108971;27;20176;-84
2023/05/02 10:57:08;;;;;;;8.32;1.17;;;;;;;;;;5103194;27;20035;-84
2023/05/02 10:59:38;;;;;;;4.85;1.58;;;;;;;;;;5106769;27;20042;-85
2023/05/02 11:02:24;;;;;;;9.05;1.15;;;;;;;;;;5109647;27;20039;-85
2023/05/02 11:05:06;;;;;;;4.60;1.17;;;;;;;;;;5089457;27;20050;-85
2023/05/02 11:07:33;;;;;;;5.53;1.35;;;;;;;;;;5110230;27;20077;-86
2023/05/02 11:10:15;;;;;;;5.57;1.50;;;;;;;;;;5109499;27;20047;-84
2023/05/02 11:12:54;;;;;;;3.55;1.15;;;;;;;;;;5083920;28;20048;-86
2023/05/02 11:15:26;;;;;;;5.25;1.08;;;;;;;;;;5110752;27;20043;-85
2023/05/02 11:18:06;;;;;;;6.20;1.92;;;;;;;;;;5110948;27;20514;-84
2023/05/02 11:20:38;;;;;;;8.73;1.67;;;;;;;;;;5110218;28;20069;-85
2023/05/02 11:23:25;;;;;;;4.13;1.20;;;;;;;;;;5114365;27;20141;-87
2023/05/02 11:25:54;;;;;;;7.70;0.90;;;;;;;;;;5108572;28;20035;-85
2023/05/02 11:28:39;;;;;;;1.77;0.77;;;;;;;;;;5105154;27;20146;-83
2023/05/02 11:31:06;;;;;;;4.38;1.23;;;;;;;;;;5104535;27;20055;-84
2023/05/02 11:33:32;;;;;;;5.32;1.15;;;;;;;;;;5124362;27;20039;-75
2023/05/02 11:35:58;;;;;;;4.40;1.50;;;;;;;;;;5079447;27;20039;-76
2023/05/02 11:38:25;;;;;;;3.05;0.85;;;;;;;;;;5101394;27;20040;-83
2023/05/02 11:40:51;;;;;;;5.05;1.10;;;;;;;;;;5082158;28;20071;-84
2023/05/02 11:43:18;;;;;;;3.03;1.15;;;;;;;;;;5083282;28;20778;-86
2023/05/02 11:45:44;;;;;;;4.57;1.23;;;;;;;;;;5102865;27;20042;-85
2023/05/02 11:48:11;;;;;;;4.30;1.08;;;;;;;;;;5113104;28;20131;-85
2023/05/02 11:50:41;;;;;;;2.25;0.73;;;;;;;;;;5106656;27;20558;-86
2023/05/02 11:53:14;;;;;;;10.45;1.70;;;;;;;;;;5106171;28;20039;-87
2023/05/02 11:55:47;;;;;;;5.38;1.58;;;;;;;;;;5108013;27;20075;-85
2023/05/02 11:58:17;;;;;;;3.63;1.13;;;;;;;;;;5110127;28;21960;-86
2023/05/02 12:00:45;;;;;;;2.17;0.90;;;;;;;;;;5105562;28;20192;-85
2023/05/02 12:03:23;;;;;;;7.53;1.02;;;;;;;;;;5108372;27;20146;-85
2023/05/02 12:05:50;;;;;;;4.32;1.23;;;;;;;;;;5096510;28;20027;-84
2023/05/02 12:08:26;;;;;;;6.05;1.17;;;;;;;;;;5083475;28;20043;-84
2023/05/02 12:10:53;;;;;;;1.95;1.20;;;;;;;;;;5092391;28;20388;-85
2023/05/02 12:13:20;;;;;;;4.15;1.10;;;;;;;;;;5109091;28;20078;-83
2023/05/02 12:15:47;;;;;;;6.20;1.00;;;;;;;;;;5092752;28;20036;-83
2023/05/02 12:18:13;;;;;;;5.03;1.27;;;;;;;;;;5103906;27;20135;-83
2023/05/02 12:20:40;;;;;;;2.33;1.08;;;;;;;;;;5105794;27;20051;-83
2023/05/02 12:23:06;;;;;;;9.55;0.98;;;;;;;;;;5096587;27;20858;-82
2023/05/02 12:25:36;;;;;;;4.15;1.00;;;;;;;;;;5092941;27;20035;-83
2023/05/02 12:28:02;;;;;;;4.47;1.05;;;;;;;;;;5083419;27;20058;-82
2023/05/02 12:30:29;;;;;;;5.68;1.10;;;;;;;;;;5108022;27;20414;-82
2023/05/02 12:33:00;;;;;;;5.05;0.98;;;;;;;;;;5083509;27;20049;-83
2023/05/02 12:35:27;;;;;;;6.65;1.10;;;;;;;;;;5079972;27;20170;-83
2023/05/02 12:37:53;;;;;;;6.38;1.38;;;;;;;;;;5089983;27;20478;-82
2023/05/02 12:40:20;;;;;;;5.93;2.03;;;;;;;;;;5104130;27;20933;-83
2023/05/02 12:43:07;;;;;;;6.10;0.85;;;;;;;;;;5083111;27;20043;-82
2023/05/02 12:45:33;;;;;;;7.40;0.80;;;;;;;;;;5112439;27;20071;-83
2023/05/02 12:48:18;;;;;;;4.80;1.33;;;;;;;;;;5105823;27;20630;-83
2023/05/02 12:50:45;;;;;;;4.47;1.00;;;;;;;;;;5085207;27;20051;-82
2023/05/02 12:53:11;;;;;;;4.93;1.00;;;;;;;;;;5124162;27;20055;-82
2023/05/02 12:55:37;;;;;;;6.72;0.90;;;;;;;;;;5104617;27;20091;-84
2023/05/02 12:58:04;;;;;;;8.90;1.35;;;;;;;;;;5124072;27;20035;-83
2023/05/02 13:00:31;;;;;;;4.32;0.80;;;;;;;;;;5108240;27;20047;-83
2023/05/02 13:02:57;;;;;;;4.35;0.88;;;;;;;;;;5088599;27;20077;-82
2023/05/02 13:05:24;;;;;;;3.40;0.70;;;;;;;;;;5091063;27;20105;-81
2023/05/02 13:07:50;;;;;;;3.25;0.75;;;;;;;;;;5091912;27;20073;-83
2023/05/02 13:10:17;;;;;;;4.53;0.90;;;;;;;;;;5102271;27;20880;-83
2023/05/02 13:12:43;;;;;;;1.40;0.65;;;;;;;;;;5102903;27;22286;-82
2023/05/02 13:15:10;;;;;;;4.35;0.98;;;;;;;;;;5084649;27;20367;-83
2023/05/02 13:17:36;;;;;;;4.65;1.25;;;;;;;;;;5104451;27;20388;-83
2023/05/02 13:20:02;;;;;;;4.07;0.95;;;;;;;;;;5080748;27;20050;-83
2023/05/02 13:22:29;;;;;;;9.10;1.85;;;;;;;;;;5105991;27;20047;-82
2023/05/02 13:24:58;;;;;;;5.90;1.25;;;;;;;;;;5107416;27;20136;-83
2023/05/02 13:27:24;;;;;;;6.00;1.20;;;;;;;;;;5105744;27;20508;-84
2023/05/02 13:29:50;;;;;;;4.32;1.05;;;;;;;;;;5102523;27;20042;-83
2023/05/02 13:32:17;;;;;;;3.15;1.02;;;;;;;;;;5087292;27;20315;-84
2023/05/02 13:34:43;;;;;;;4.90;1.15;;;;;;;;;;5104980;27;20126;-83
2023/05/02 13:37:09;;;;;;;4.38;0.88;;;;;;;;;;5089693;27;20032;-82
2023/05/02 13:39:35;;;;;;;3.40;1.17;;;;;;;;;;5106421;27;20821;-83
2023/05/02 13:42:03;;;;;;;1.67;0.65;;;;;;;;;;5100726;27;20035;-83
2023/05/02 13:44:29;;;;;;;3.45;0.85;;;;;;;;;;5103227;27;20130;-82
2023/05/02 13:46:55;;;;;;;4.20;1.13;;;;;;;;;;5102364;27;20031;-82
2023/05/02 13:49:22;;;;;;;3.38;0.70;;;;;;;;;;5116145;27;20043;-82
2023/05/02 13:51:48;;;;;;;2.28;0.90;;;;;;;;;;5106482;27;20054;-84
2023/05/02 13:54:14;;;;;;;4.95;0.90;;;;;;;;;;5099508;27;20047;-82
2023/05/02 13:56:41;;;;;;;4.85;0.77;;;;;;;;;;5108557;27;20606;-82
2023/05/02 13:59:07;;;;;;;2.17;1.00;;;;;;;;;;5111538;27;20039;-83
2023/05/02 14:01:33;;;;;;;6.47;1.35;;;;;;;;;;5112984;27;20631;-83
2023/05/02 14:04:05;;;;;;;2.83;0.70;;;;;;;;;;5100498;27;20100;-82
2023/05/02 14:06:31;;;;;;;2.42;0.80;;;;;;;;;;5102278;27;20138;-83
2023/05/02 14:08:57;;;;;;;2.63;0.77;;;;;;;;;;5086078;27;20070;-82
2023/05/02 14:11:23;;;;;;;3.35;1.20;;;;;;;;;;5085123;27;20200;-82
2023/05/02 14:13:50;;;;;;;3.05;1.10;;;;;;;;;;5089795;27;20039;-81
2023/05/02 14:16:16;;;;;;;6.28;1.33;;;;;;;;;;5104218;27;20533;-81
2023/05/02 14:18:44;;;;;;;4.15;1.20;;;;;;;;;;5066534;27;20061;-82
2023/05/02 14:21:10;;;;;;;3.60;0.75;;;;;;;;;;5082846;27;20104;-82
2023/05/02 14:23:36;;;;;;;6.03;1.13;;;;;;;;;;5098719;27;20162;-83
2023/05/02 14:26:02;;;;;;;2.97;0.90;;;;;;;;;;5085833;27;20047;-83
2023/05/02 14:28:31;;;;;;;4.82;1.20;;;;;;;;;;5079474;27;20043;-84
2023/05/02 14:30:57;;;;;;;6.82;1.27;;;;;;;;;;5101979;27;20040;-84
2023/05/02 14:33:23;;;;;;;5.43;1.45;;;;;;;;;;5095464;27;22146;-82
2023/05/02 14:35:49;;;;;;;5.28;1.08;;;;;;;;;;5082363;27;20491;-81
2023/05/02 14:38:15;;;;;;;8.05;1.20;;;;;;;;;;5083791;27;20058;-82
2023/05/02 14:40:41;;;;;;;7.45;1.17;;;;;;;;;;5088386;27;20082;-81
2023/05/02 14:43:08;;;;;;;9.23;1.70;;;;;;;;;;5100440;27;20751;-81